Aviation Digital Data Service (ADDS)

Output produced by METARs form (1823 UTC 22 November 2017)
found at http://www.aviationweather.gov/adds/metars/
 
KGBD 221725Z 2218/2318 19014G19KT P6SM SCT250 
     FM230100 20009KT P6SM SCT250 
     FM230900 29008KT P6SM SCT250 AMD LTD TO CLD VIS AND WIND
       
KGCC 221809Z 2218/2318 25012KT P6SM FEW250 
     FM221900 31015G25KT P6SM SCT150 
     FM230000 27008KT P6SM SCT200
       
KGCK 221720Z 2218/2318 20013G23KT P6SM SCT250 
     FM230000 23006KT P6SM SCT250 
     FM230900 32008KT P6SM SCT250
       
KGCN 221720Z 2218/2318 06006KT P6SM FEW250
       
KGDV 221720Z 2218/2318 28014KT P6SM SCT180 
     FM222300 29006KT P6SM FEW160 
     FM231100 23007KT P6SM SCT035
       
KGEG 221740Z 2218/2318 00000KT P6SM OVC009 
     FM222100 17008KT P6SM BKN012 OVC050 
     FM230000 18007KT P6SM VCSH SCT050 OVC070 
     FM230700 20012KT P6SM -SHRA BKN009 OVC050 
     FM231500 20015G24KT P6SM -RA BKN013 OVC040
       
TAF KGFA 221200Z 2212/2318 21015G25KT 9999 FEW080 SCT250 510009 QNH2993INS 
     TEMPO 2212/2218 21025G35KT 530001 
     BECMG 2303/2304 25012G20KT 9999 SCT100 BKN250 QNH2998INS 
     BECMG 2315/2316 23020G30KT 9999 FEW100 520009 QNH3004INS TX12/2221Z TN06/2214Z
       
KGFK 221734Z 2218/2318 18013KT P6SM -SN SCT040 OVC060 
     TEMPO 2218/2220 4SM -SN OVC040 
     FM222200 16008KT P6SM OVC045 
     FM230200 VRB06KT P6SM SCT200 
     FM231500 16009KT P6SM BKN100
       
KGFL 221720Z 2218/2318 33006KT P6SM VCSH SCT025 BKN040 
     TEMPO 2218/2222 BKN025 
     FM222200 33009KT P6SM SCT025 SCT250 
     FM230600 32005KT P6SM FEW200 
     FM231500 23004KT P6SM FEW035 FEW150
       
KGGG 221721Z 2218/2318 02008KT P6SM SCT250 
     FM230000 00000KT P6SM BKN250 
     FM231400 VRB03KT P6SM BKN200
       
KGGW 221720Z 2218/2318 30010KT P6SM SCT170 
     FM230300 VRB06KT P6SM SCT040 
     FM230800 VRB03KT 3SM BR BKN017 WS020/28035KT 
     FM231700 21006KT P6SM SCT018 WS020/27035KT
       
KGJT 221733Z 2218/2318 VRB03KT P6SM BKN250 
     FM221900 25004KT P6SM BKN250 
     FM230100 06004KT P6SM SCT250 
     FM230600 11004KT P6SM FEW250
       
KGKY 221752Z 2218/2318 33012KT P6SM SCT250 
     FM230200 VRB03KT P6SM SKC 
     FM231500 18008KT P6SM SCT250
       
KGLD 221720Z 2218/2318 30010KT P6SM SCT250
       
KGLH 221726Z 2218/2318 02015G25KT P6SM SKC 
     FM230000 36009KT P6SM SKC
       
KGLS 221723Z 2218/2318 36017G24KT P6SM SKC 
     FM230000 36014KT P6SM SKC 
     FM231200 01011KT P6SM SKC
       
KGMU 221720Z 2218/2318 36015G20KT P6SM FEW250 
     FM222100 04008KT P6SM SCT250 
     FM231200 05007KT P6SM SKC
       
KGNV 221720Z 2218/2318 04006KT P6SM BKN035 
     FM230100 06005KT P6SM OVC018 
     FM230500 04003KT 4SM -RA BR OVC015 
     FM230800 04005KT 2SM -RA BR OVC006
       
KGON 221730Z 2218/2318 30009KT P6SM VCSH BKN006 BKN015 
     TEMPO 2218/2220 6SM -RA 
     FM222000 33011G18KT P6SM BKN025 BKN100 
     FM222200 33012G20KT P6SM SCT050 
     FM230100 33012G21KT P6SM FEW050 
     FM230500 32011KT P6SM SKC 
     FM230800 32006KT P6SM SKC
       
KGPT 221720Z 2218/2318 02013G20KT P6SM SKC
       
KGRB 221722Z 2218/2318 28006KT P6SM SCT035 
     TEMPO 2218/2222 BKN035 
     FM222300 22006KT P6SM BKN100 
     FM230500 22006KT P6SM -SN SCT025 OVC080 
     FM231300 24005KT P6SM SCT070
       
TAF KGRF 221303Z 2213/2319 17009KT 8000 -SHRA BKN030 QNH2996INS 
     BECMG 2214/2215 19012KT 8000 -RA BKN040 WS020/21035KT QNH2997INS 
     BECMG 2220/2221 18015G25KT 8000 -SHRA BKN020 OVC050 520009 QNH2989INS 
     TEMPO 2221/2309 18025G35KT 4800 SHRA BR 530009 
     BECMG 2308/2309 18012G18KT 8000 -RA BKN020 OVC040 QNH2977INS 
     BECMG 2314/2315 20025G35KT 6000 SHRA BKN010 BKN030 530009 QNH2978INS TX18/2219Z TN12/2313Z
       
KGRI 221725Z 2218/2318 20016KT P6SM SCT250 
     FM222300 20008KT P6SM SCT250 
     FM230600 26007KT P6SM FEW250 
     FM230800 30007KT P6SM FEW250 
     FM231400 VRB03KT P6SM FEW250
       
TAF KGRK 221600Z 2216/2322 35012G18KT 9999 SKC QNH3026INS 
     BECMG 2223/2224 35005KT 9999 FEW200 QNH3009INS TX15/2221Z TN01/2312Z
       
KGRR 221740Z 2218/2318 29008KT P6SM BKN040 
     FM222200 24007KT P6SM BKN040 
     FM230200 22009KT P6SM BKN080
       
TAF KGSB 221300Z 2213/2319 33006KT 9999 SCT050 QNH2990INS 
     BECMG 2217/2218 34010G20KT 9999 FEW050 QNH2994INS 
     BECMG 2223/2224 35009KT 9999 FEW250 QNH3003INS TX19/2218Z TN02/2312Z
       
KGSO 221720Z 2218/2318 35007KT P6SM SCT250 
     FM230000 01007KT P6SM BKN250
       
KGSP 221720Z 2218/2318 34015G20KT P6SM FEW250 
     FM222100 03006KT P6SM SCT250 
     FM231200 04005KT P6SM SKC
       
TAF AMD KGTB 221735Z 2217/2323 34009KT 8000 -SHSN FEW009 BKN014 OVC038 610144 QNH2998INS 
     BECMG 2220/2221 36009KT 9999 NSW FEW014 OVC040 610402 QNH3000INS 
     BECMG 2300/2301 VRB06KT 9999 SCT030 BKN200 QNH3007INS 
     BECMG 2311/2312 21009KT 9999 OVC020 620203 QNH2993INS 
     BECMG 2320/2321 23009KT 9999 FEW012 OVC015 620209 QNH2989INS TX04/2221Z TNM04/2312Z
       
KGTF 221741Z 2218/2318 22018G27KT P6SM SCT100 BKN150
       
KGTR 221726Z 2218/2318 35012G19KT P6SM SKC 
     FM230000 35007KT P6SM SKC
       
KGUC 221733Z 2218/2318 00000KT P6SM BKN250 
     FM230100 33004KT P6SM FEW100 BKN250 
     FM231200 00000KT P6SM SCT250
       
KGUP 221723Z 2218/2318 00000KT P6SM FEW250 
     FM222100 34007KT P6SM FEW250 
     FM230100 00000KT P6SM SKC
       
TAF KGUS 221100Z 2211/2317 31012KT 9999 BKN035 650352 QNH3016INS 
     BECMG 2214/2215 28012KT 9999 SCT035 QNH3000INS WND 21006KT AFT 2300 TX03/2220Z TNM03/2211Z
       
KGWO 221726Z 2218/2318 02010G16KT P6SM SKC 
     FM222300 36006KT P6SM SKC
       
KGYY 221720Z 2218/2318 25005KT P6SM SKC 
     FM222300 VRB04KT P6SM OVC120 
     FM231500 22009KT P6SM FEW070